Time;durP1;ratioP1;P1;durP2;ratioP2;P2;SDS_P1;SDS_P2;PMS_P1;PMS_P2;Temp;Humidity;BMP_temperature;BMP_pressure;BME280_temperature;BME280_humidity;BME280_pressure;Samples;Min_cycle;Max_cycle;Signal;HPM_P1;HPM_P2
2023/05/24 00:00:54;;;;;;;8.80;3.90;;;;;;;13.98;63.92;93749.22;5025093;28;20089;-75
2023/05/24 00:03:20;;;;;;;9.50;4.03;;;;;;;13.96;64.29;93740.72;5024986;28;20423;-75
2023/05/24 00:05:45;;;;;;;10.48;4.00;;;;;;;13.90;64.41;93741.28;5025074;28;20026;-75
2023/05/24 00:08:11;;;;;;;12.52;3.88;;;;;;;13.87;64.77;93740.06;5025025;28;20029;-75
2023/05/24 00:10:37;;;;;;;13.73;4.30;;;;;;;13.85;64.48;93734.25;5024932;28;20072;-75
2023/05/24 00:13:02;;;;;;;9.18;3.90;;;;;;;13.86;64.16;93741.19;5007202;28;20385;-75
2023/05/24 00:15:28;;;;;;;9.80;4.38;;;;;;;13.85;64.21;93737.69;5023944;28;20089;-75
2023/05/24 00:17:53;;;;;;;11.13;4.15;;;;;;;13.82;64.19;93746.41;5024531;28;20034;-75
2023/05/24 00:20:19;;;;;;;9.05;4.13;;;;;;;13.82;64.24;93743.75;5024569;28;20077;-75
2023/05/24 00:22:45;;;;;;;12.75;4.63;;;;;;;13.82;64.20;93746.41;5024719;28;20030;-75
2023/05/24 00:25:10;;;;;;;8.00;3.03;;;;;;;13.80;63.72;93739.84;5024712;28;20025;-75
2023/05/24 00:27:36;;;;;;;14.70;4.13;;;;;;;13.80;63.89;93743.28;5024420;28;20038;-75
2023/05/24 00:30:03;;;;;;;7.13;3.45;;;;;;;13.80;64.14;93737.94;5024171;28;20045;-75
2023/05/24 00:32:28;;;;;;;8.07;3.65;;;;;;;13.79;64.47;93731.00;5024540;28;20037;-75
2023/05/24 00:34:53;;;;;;;6.88;3.80;;;;;;;13.78;64.72;93734.81;4996872;28;20070;-75
2023/05/24 00:37:19;;;;;;;7.57;3.75;;;;;;;13.74;64.47;93738.47;5004512;28;20096;-75
2023/05/24 00:39:44;;;;;;;9.60;4.10;;;;;;;13.68;65.01;93729.91;4986989;28;20256;-75
2023/05/24 00:42:10;;;;;;;10.00;4.07;;;;;;;13.65;64.92;93730.56;5004643;28;20018;-75
2023/05/24 00:44:35;;;;;;;8.02;3.90;;;;;;;13.64;65.40;93729.03;5004606;28;20436;-75
2023/05/24 00:47:01;;;;;;;6.70;3.60;;;;;;;13.57;65.46;93731.47;5004709;28;20034;-75
2023/05/24 00:49:26;;;;;;;6.80;3.70;;;;;;;13.53;65.48;93727.88;5004451;28;20029;-75
2023/05/24 00:51:53;;;;;;;9.95;4.18;;;;;;;13.43;66.09;93724.56;5004685;28;20030;-75
2023/05/24 00:54:19;;;;;;;8.55;4.45;;;;;;;13.35;66.26;93730.00;5004176;28;20093;-75
2023/05/24 00:56:46;;;;;;;8.40;4.30;;;;;;;13.31;66.80;93721.06;5004464;28;20110;-76
2023/05/24 00:59:13;;;;;;;6.90;3.83;;;;;;;13.27;66.90;93726.28;5004469;28;20042;-76
2023/05/24 01:01:40;;;;;;;8.65;4.60;;;;;;;13.23;67.37;93725.41;5004543;28;20342;-76
2023/05/24 01:04:06;;;;;;;8.18;4.35;;;;;;;13.20;67.17;93734.84;5004274;28;20271;-76
2023/05/24 01:06:43;;;;;;;8.93;3.78;;;;;;;13.14;67.48;93738.06;4987058;28;20026;-75
2023/05/24 01:09:27;;;;;;;6.38;3.92;;;;;;;13.08;67.79;93734.06;5004220;28;20936;-76
2023/05/24 01:12:06;;;;;;;7.25;4.03;;;;;;;13.01;67.77;93734.59;5004130;28;20022;-76
2023/05/24 01:15:16;;;;;;;10.00;4.60;;;;;;;12.97;68.00;93734.47;5003972;28;20034;-75
2023/05/24 01:18:00;;;;;;;8.00;4.63;;;;;;;12.88;68.15;93736.44;4986349;28;20060;-75
2023/05/24 01:20:29;;;;;;;11.63;4.47;;;;;;;12.85;68.08;93739.78;5004149;28;20093;-75
2023/05/24 01:23:06;;;;;;;12.02;4.68;;;;;;;12.82;67.70;93735.88;5003819;28;20018;-75
2023/05/24 01:25:44;;;;;;;10.30;4.78;;;;;;;12.80;67.78;93737.31;5004034;28;20022;-75
2023/05/24 01:28:11;;;;;;;12.18;4.72;;;;;;;12.75;67.92;93743.66;5002929;28;20038;-75
2023/05/24 01:30:38;;;;;;;10.52;4.70;;;;;;;12.79;68.27;93754.47;5003818;28;20524;-75
2023/05/24 01:33:04;;;;;;;10.23;4.40;;;;;;;12.77;68.20;93746.78;5004054;28;20026;-75
2023/05/24 01:35:29;;;;;;;8.05;4.75;;;;;;;12.77;67.96;93743.31;5018619;28;20229;-75
2023/05/24 01:37:55;;;;;;;7.38;4.18;;;;;;;12.75;67.97;93748.22;5023388;28;20079;-75
2023/05/24 01:40:21;;;;;;;10.45;4.95;;;;;;;12.75;68.00;93750.91;5023221;28;20467;-76
2023/05/24 01:42:55;;;;;;;7.13;4.32;;;;;;;12.74;68.16;93752.00;5023293;28;20029;-75
2023/05/24 01:45:49;;;;;;;9.15;4.35;;;;;;;12.74;68.08;93752.00;5023168;28;20029;-75
2023/05/24 01:48:30;;;;;;;11.32;4.15;;;;;;;12.69;68.45;93752.22;5006018;28;20021;-75
2023/05/24 01:50:59;;;;;;;7.47;4.35;;;;;;;12.61;68.50;93751.94;5022894;28;20029;-75
2023/05/24 01:53:32;;;;;;;9.68;4.43;;;;;;;12.56;68.81;93749.50;5004788;28;20209;-75
2023/05/24 01:56:01;;;;;;;10.23;4.68;;;;;;;12.55;69.04;93749.81;5022513;28;20030;-75
2023/05/24 01:58:28;;;;;;;9.30;4.60;;;;;;;12.52;69.12;93745.91;5022699;28;20263;-75
2023/05/24 02:00:54;;;;;;;9.10;4.45;;;;;;;12.50;69.21;93742.78;5022211;28;20026;-75
2023/05/24 02:03:20;;;;;;;11.35;4.57;;;;;;;12.40;69.46;93737.84;5021121;28;20335;-75
2023/05/24 02:05:46;;;;;;;7.07;4.40;;;;;;;12.35;69.65;93727.31;5022134;28;20029;-75
2023/05/24 02:08:11;;;;;;;7.43;4.22;;;;;;;12.38;69.56;93732.81;5022602;28;20315;-75
2023/05/24 02:10:38;;;;;;;10.18;5.13;;;;;;;12.40;69.49;93732.50;5022887;28;20042;-75
2023/05/24 02:13:04;;;;;;;9.52;4.78;;;;;;;12.27;70.01;93728.94;5022624;28;20029;-76
2023/05/24 02:15:30;;;;;;;13.27;5.03;;;;;;;12.19;70.39;93727.94;5022657;28;20053;-75
2023/05/24 02:17:57;;;;;;;11.50;4.88;;;;;;;12.13;70.30;93734.59;5005077;28;20030;-75
2023/05/24 02:20:23;;;;;;;8.10;5.30;;;;;;;12.17;70.47;93735.50;5022840;28;20026;-75
2023/05/24 02:22:48;;;;;;;10.00;4.65;;;;;;;12.20;70.39;93737.50;5022715;28;20025;-75
2023/05/24 02:25:15;;;;;;;11.00;5.53;;;;;;;12.15;70.52;93737.72;5022923;28;20030;-75
2023/05/24 02:27:45;;;;;;;8.30;4.70;;;;;;;12.11;70.69;93720.75;5022049;28;20333;-75
2023/05/24 02:30:11;;;;;;;9.57;4.93;;;;;;;12.08;70.91;93732.09;5022659;28;20025;-75
2023/05/24 02:32:37;;;;;;;8.30;4.78;;;;;;;12.11;71.04;93738.66;5022414;28;20030;-75
2023/05/24 02:35:02;;;;;;;8.68;4.63;;;;;;;12.09;71.11;93717.63;5022584;28;20092;-75
2023/05/24 02:37:28;;;;;;;8.95;4.57;;;;;;;12.06;71.28;93722.84;5022508;28;20212;-75
2023/05/24 02:39:53;;;;;;;7.65;4.47;;;;;;;11.99;71.08;93718.03;5024283;28;20033;-75
2023/05/24 02:42:19;;;;;;;10.30;4.97;;;;;;;11.98;71.28;93717.22;5026893;28;20045;-75
2023/05/24 02:44:48;;;;;;;8.48;4.38;;;;;;;12.02;71.33;93728.03;5026355;28;20316;-75
2023/05/24 02:47:14;;;;;;;8.50;4.43;;;;;;;12.04;70.83;93721.25;5026572;28;20316;-75
2023/05/24 02:49:40;;;;;;;8.80;4.25;;;;;;;12.02;70.50;93728.03;5026206;28;20225;-75
2023/05/24 02:52:06;;;;;;;7.93;4.65;;;;;;;11.92;70.69;93729.19;5026208;28;20033;-75
2023/05/24 02:54:31;;;;;;;26.65;5.00;;;;;;;11.93;70.80;93738.00;5026419;28;20365;-75
2023/05/24 02:56:57;;;;;;;11.25;5.28;;;;;;;11.91;70.99;93732.22;5026314;28;20096;-75
2023/05/24 02:59:23;;;;;;;11.18;4.80;;;;;;;11.85;71.19;93729.69;5026192;28;20037;-74
2023/05/24 03:01:48;;;;;;;11.90;4.97;;;;;;;11.81;71.32;93739.47;5026324;28;20041;-74
2023/05/24 03:04:14;;;;;;;14.65;5.00;;;;;;;11.73;71.71;93734.94;5026197;28;20064;-74
2023/05/24 03:06:42;;;;;;;7.85;4.43;;;;;;;11.74;71.81;93733.06;5025868;28;20021;-74
2023/05/24 03:09:08;;;;;;;9.52;4.45;;;;;;;11.76;71.85;93736.97;5008586;28;20264;-74
2023/05/24 03:11:33;;;;;;;20.92;4.93;;;;;;;11.76;71.39;93736.97;5008361;28;20018;-74
2023/05/24 03:13:58;;;;;;;9.20;4.10;;;;;;;11.83;71.15;93737.25;5026003;28;20354;-74
2023/05/24 03:16:24;;;;;;;15.52;4.70;;;;;;;11.87;71.00;93737.38;5025922;28;20022;-74
2023/05/24 03:18:50;;;;;;;10.25;4.68;;;;;;;11.90;71.04;93744.00;5025847;28;20018;-74
2023/05/24 03:21:19;;;;;;;7.50;3.75;;;;;;;11.91;69.73;93745.56;5025875;28;20018;-74
2023/05/24 03:23:47;;;;;;;9.75;3.70;;;;;;;11.93;68.98;93738.00;5025871;28;20018;-74
2023/05/24 03:26:13;;;;;;;6.25;3.10;;;;;;;11.99;68.81;93747.41;5008282;28;20064;-75
2023/05/24 03:28:39;;;;;;;9.13;3.33;;;;;;;12.03;67.67;93749.09;5025633;28;20243;-75
2023/05/24 03:31:06;;;;;;;8.18;3.75;;;;;;;12.04;67.33;93758.66;5025778;28;20032;-75
2023/05/24 03:33:31;;;;;;;6.40;3.55;;;;;;;12.13;66.88;93753.28;5025619;28;20029;-75
2023/05/24 03:35:57;;;;;;;11.40;4.28;;;;;;;12.22;67.38;93764.69;5025485;28;20104;-75
2023/05/24 03:38:22;;;;;;;9.52;4.35;;;;;;;12.32;67.06;93768.09;5025610;28;20124;-75
2023/05/24 03:40:48;;;;;;;4.80;3.45;;;;;;;12.38;66.85;93756.88;5025337;28;20036;-75
2023/05/24 03:43:14;;;;;;;6.78;3.40;;;;;;;12.45;66.93;93772.38;5024281;28;20085;-75
2023/05/24 03:45:39;;;;;;;9.65;3.95;;;;;;;12.52;67.54;93767.28;5025146;28;20029;-75
2023/05/24 03:48:05;;;;;;;7.03;3.95;;;;;;;12.60;67.74;93769.13;5025241;28;20201;-75
2023/05/24 03:50:30;;;;;;;17.98;5.57;;;;;;;12.65;67.87;93766.22;5025112;28;20022;-75
2023/05/24 03:52:56;;;;;;;9.88;4.50;;;;;;;12.74;67.68;93754.66;5025246;28;20025;-75
2023/05/24 03:55:21;;;;;;;9.40;4.57;;;;;;;12.79;67.70;93760.59;5024988;28;20316;-74
2023/05/24 03:57:47;;;;;;;6.47;4.20;;;;;;;12.84;67.38;93754.25;5025048;28;20092;-74
2023/05/24 04:00:15;;;;;;;9.05;3.90;;;;;;;12.91;67.48;93759.88;5024880;28;20032;-73
2023/05/24 04:02:41;;;;;;;18.70;4.88;;;;;;;12.94;67.39;93761.88;5024900;28;20021;-74
2023/05/24 04:05:10;;;;;;;12.25;5.63;;;;;;;13.05;67.86;93762.25;5007411;28;20060;-74
2023/05/24 04:07:36;;;;;;;14.38;5.03;;;;;;;13.13;67.71;93760.63;5024837;28;20140;-74
2023/05/24 04:10:06;;;;;;;19.52;5.50;;;;;;;13.16;67.09;93767.97;5024916;28;20300;-74
2023/05/24 04:12:31;;;;;;;10.23;5.70;;;;;;;13.17;66.65;93764.97;5024896;28;20022;-75
2023/05/24 04:14:58;;;;;;;18.88;5.22;;;;;;;13.24;66.40;93769.75;5024679;28;20089;-75
2023/05/24 04:17:24;;;;;;;10.25;5.45;;;;;;;13.24;66.20;93764.41;5024851;28;20045;-74
2023/05/24 04:19:52;;;;;;;17.25;5.10;;;;;;;13.27;66.11;93766.44;5024275;28;20398;-74
2023/05/24 04:22:18;;;;;;;13.27;5.75;;;;;;;13.32;66.48;93763.56;5007227;28;20053;-74
2023/05/24 04:24:44;;;;;;;15.63;5.40;;;;;;;13.39;66.61;93766.50;5024578;28;20026;-74
2023/05/24 04:27:10;;;;;;;15.93;6.07;;;;;;;13.45;66.66;93780.41;5024620;28;20263;-74
2023/05/24 04:29:36;;;;;;;10.68;5.63;;;;;;;13.52;66.77;93769.19;5024617;28;20017;-74
2023/05/24 04:32:01;;;;;;;11.82;6.63;;;;;;;13.58;66.45;93771.31;5024351;28;20022;-74
2023/05/24 04:34:32;;;;;;;13.68;6.18;;;;;;;13.64;65.91;93779.91;5024179;28;20049;-75
2023/05/24 04:36:58;;;;;;;11.95;5.97;;;;;;;13.67;65.75;93781.13;5024554;28;20354;-75
2023/05/24 04:39:24;;;;;;;14.02;5.97;;;;;;;13.70;65.94;93781.25;5024382;28;20113;-75
2023/05/24 04:41:50;;;;;;;11.15;6.07;;;;;;;13.73;65.61;93779.78;5024525;28;20025;-75
2023/05/24 04:44:16;;;;;;;15.88;6.47;;;;;;;13.76;65.30;93782.59;5024623;28;20043;-74
2023/05/24 04:46:41;;;;;;;19.80;6.60;;;;;;;13.81;65.59;93793.06;5024016;28;20025;-75
2023/05/24 04:49:07;;;;;;;15.52;6.80;;;;;;;13.85;65.36;93788.59;5023929;28;20026;-75
2023/05/24 04:51:33;;;;;;;15.55;6.85;;;;;;;13.96;65.06;93793.50;5024350;28;20212;-75
2023/05/24 04:54:00;;;;;;;12.63;6.25;;;;;;;14.04;64.85;93792.63;5024246;28;20041;-75
2023/05/24 04:56:25;;;;;;;17.77;7.85;;;;;;;14.14;64.59;93800.19;5024082;28;20097;-76
2023/05/24 04:58:51;;;;;;;22.92;8.27;;;;;;;14.22;65.43;93791.25;5023897;28;20308;-75
2023/05/24 05:01:17;;;;;;;10.85;7.18;;;;;;;14.27;66.18;93792.13;5006545;28;20029;-75
2023/05/24 05:03:44;;;;;;;20.10;7.63;;;;;;;14.38;65.77;93799.38;5023834;28;20044;-74
2023/05/24 05:06:10;;;;;;;18.15;7.78;;;;;;;14.47;65.55;93799.28;5023910;28;20093;-74
2023/05/24 05:08:36;;;;;;;30.40;7.50;;;;;;;14.53;65.54;93808.66;5023789;28;20037;-74
2023/05/24 05:11:01;;;;;;;24.33;8.43;;;;;;;14.58;65.92;93803.06;5023814;28;20216;-74
2023/05/24 05:13:27;;;;;;;17.27;8.02;;;;;;;14.63;66.20;93802.84;5022623;28;20024;-74
2023/05/24 05:15:52;;;;;;;16.27;7.90;;;;;;;14.71;66.13;93797.66;5023800;28;20025;-74
2023/05/24 05:18:18;;;;;;;15.43;8.95;;;;;;;14.78;65.86;93800.56;5005956;28;20045;-75
2023/05/24 05:20:43;;;;;;;18.15;8.60;;;;;;;14.90;66.23;93800.53;5023522;28;20098;-75
2023/05/24 05:23:09;;;;;;;14.30;7.75;;;;;;;14.94;65.79;93797.91;5023690;28;20028;-75
2023/05/24 05:25:34;;;;;;;13.30;7.22;;;;;;;15.04;65.47;93803.59;5023563;28;20025;-74
2023/05/24 05:28:00;;;;;;;27.63;8.13;;;;;;;15.16;64.73;93810.03;5023267;28;20025;-73
2023/05/24 05:30:25;;;;;;;19.27;8.30;;;;;;;15.21;63.97;93815.16;5023418;28;20026;-73
2023/05/24 05:32:51;;;;;;;15.65;7.88;;;;;;;15.29;63.55;93814.22;5023386;28;20041;-72
2023/05/24 05:35:16;;;;;;;20.65;8.32;;;;;;;15.35;63.16;93812.84;5023466;28;20050;-73
2023/05/24 05:37:42;;;;;;;14.98;7.47;;;;;;;15.32;61.26;93815.44;5023378;28;20084;-74
2023/05/24 05:40:08;;;;;;;10.98;6.38;;;;;;;15.24;60.85;93811.78;5023480;28;20042;-74
2023/05/24 05:42:33;;;;;;;12.25;6.93;;;;;;;15.18;60.76;93818.50;5023385;28;20093;-74
2023/05/24 05:44:59;;;;;;;16.63;6.80;;;;;;;15.20;60.70;93814.38;5023394;28;20040;-74
2023/05/24 05:47:24;;;;;;;14.00;7.25;;;;;;;15.23;61.29;93810.22;5023120;28;20349;-75
2023/05/24 05:49:50;;;;;;;11.48;7.85;;;;;;;15.24;61.19;93809.88;5023237;28;20025;-75
2023/05/24 05:52:15;;;;;;;12.57;7.13;;;;;;;15.37;62.12;93821.34;5023320;28;20253;-75
2023/05/24 05:54:41;;;;;;;17.98;7.43;;;;;;;15.49;62.01;93814.31;5023253;28;20025;-75
2023/05/24 05:57:09;;;;;;;19.02;7.70;;;;;;;15.62;62.16;93815.81;5023185;28;20320;-75
2023/05/24 05:59:34;;;;;;;17.73;7.80;;;;;;;15.78;62.27;93819.31;5023086;28;20185;-76
2023/05/24 06:02:01;;;;;;;13.55;7.93;;;;;;;15.91;61.90;93819.25;5023128;28;20029;-75
2023/05/24 06:04:27;;;;;;;17.85;8.32;;;;;;;15.99;61.41;93826.34;5022884;28;20021;-76
2023/05/24 06:06:52;;;;;;;16.90;7.35;;;;;;;16.05;60.22;93833.78;5022831;28;20029;-79
2023/05/24 06:09:18;;;;;;;14.73;7.18;;;;;;;16.13;60.27;93834.75;5023429;28;20244;-75
2023/05/24 06:11:43;;;;;;;13.75;6.85;;;;;;;16.22;60.52;93827.28;5023113;28;20018;-83
2023/05/24 06:14:23;;;;;;;16.98;7.65;;;;;;;16.32;59.66;93833.25;5005281;28;20220;-84
2023/05/24 06:16:51;;;;;;;22.55;7.07;;;;;;;16.38;58.75;93824.56;5023788;28;20030;-84
2023/05/24 06:19:17;;;;;;;32.08;7.30;;;;;;;16.39;58.27;93825.34;5023648;28;20057;-84
2023/05/24 06:21:46;;;;;;;18.08;6.53;;;;;;;16.44;57.30;93830.44;5023683;28;20030;-84
2023/05/24 06:24:13;;;;;;;15.00;6.13;;;;;;;16.45;56.56;93829.34;5023397;28;20026;-84
2023/05/24 06:26:42;;;;;;;24.60;6.78;;;;;;;16.50;56.85;93826.34;5023458;28;20049;-83
2023/05/24 06:29:08;;;;;;;17.10;6.47;;;;;;;16.57;56.36;93829.22;5023452;28;20048;-84
2023/05/24 06:31:34;;;;;;;15.25;5.80;;;;;;;16.60;56.75;93841.97;5023337;28;20066;-84
2023/05/24 06:34:00;;;;;;;16.50;5.82;;;;;;;16.61;56.75;93827.38;5023496;28;20029;-85
2023/05/24 06:36:34;;;;;;;17.25;6.45;;;;;;;16.70;57.05;93823.72;5023677;28;20037;-85
2023/05/24 06:39:00;;;;;;;17.73;7.53;;;;;;;16.76;56.86;93827.69;5023664;28;20093;-84
2023/05/24 06:41:26;;;;;;;27.65;7.38;;;;;;;16.81;56.01;93827.44;5023511;28;20041;-84
2023/05/24 06:43:52;;;;;;;15.63;5.82;;;;;;;16.91;56.40;93823.41;5023276;28;20071;-85
2023/05/24 06:46:17;;;;;;;9.90;5.15;;;;;;;16.97;54.66;93828.13;5023235;28;20034;-83
2023/05/24 06:48:43;;;;;;;11.90;4.18;;;;;;;17.03;53.41;93826.72;5023054;28;20029;-83
2023/05/24 06:51:08;;;;;;;15.30;5.20;;;;;;;17.11;52.78;93827.66;5005518;28;20332;-83
2023/05/24 06:53:34;;;;;;;11.57;4.22;;;;;;;17.11;51.36;93824.19;5023079;28;20047;-83
2023/05/24 06:56:04;;;;;;;11.82;3.78;;;;;;;17.17;49.73;93814.69;5022800;28;20018;-83
2023/05/24 06:58:30;;;;;;;11.18;4.45;;;;;;;17.30;51.29;93818.81;5023208;28;20064;-84
2023/05/24 07:00:56;;;;;;;8.65;4.18;;;;;;;17.37;51.89;93810.84;5022756;28;20324;-84
2023/05/24 07:03:22;;;;;;;10.20;5.05;;;;;;;17.46;52.57;93824.06;5022907;28;20030;-84
2023/05/24 07:05:47;;;;;;;12.27;4.50;;;;;;;17.55;52.59;93823.88;5023565;28;20032;-87
2023/05/24 07:08:13;;;;;;;15.52;5.10;;;;;;;17.60;52.41;93821.63;5023689;28;20026;-86
2023/05/24 07:10:38;;;;;;;10.52;4.03;;;;;;;17.58;52.18;93813.13;5023147;28;20017;-89
2023/05/24 07:13:04;;;;;;;8.07;4.10;;;;;;;17.57;51.23;93818.91;5023643;28;20022;-89
2023/05/24 07:15:29;;;;;;;16.48;4.80;;;;;;;17.63;51.95;93820.16;5005902;28;20029;-85
2023/05/24 07:17:55;;;;;;;9.18;4.25;;;;;;;17.72;50.97;93828.78;5023966;28;20100;-83
2023/05/24 07:20:20;;;;;;;11.70;4.60;;;;;;;17.83;50.65;93827.09;5023425;28;20109;-86
2023/05/24 07:22:46;;;;;;;12.48;4.80;;;;;;;17.93;52.31;93823.03;5024427;28;20021;-93
2023/05/24 07:25:11;;;;;;;15.35;6.20;;;;;;;18.03;51.57;93827.00;5024933;28;20052;-89
2023/05/24 07:27:37;;;;;;;13.95;4.13;;;;;;;18.07;51.25;93825.16;5027677;28;20034;-88
2023/05/24 07:30:04;;;;;;;11.50;5.05;;;;;;;18.13;51.14;93828.31;5027038;28;20018;-87
2023/05/24 07:32:31;;;;;;;6.53;3.90;;;;;;;18.16;50.25;93833.78;5027406;28;20255;-89
2023/05/24 07:34:57;;;;;;;13.27;4.53;;;;;;;18.22;49.95;93823.47;5010444;28;20109;-87
2023/05/24 07:37:23;;;;;;;12.98;4.63;;;;;;;18.33;50.35;93829.78;5027295;28;20037;-90
2023/05/24 07:39:52;;;;;;;10.93;4.68;;;;;;;18.37;48.62;93832.56;5027303;28;20021;-91
2023/05/24 07:42:17;;;;;;;8.02;3.97;;;;;;;18.36;49.86;93829.09;5010078;28;20068;-86
2023/05/24 07:44:43;;;;;;;16.58;4.20;;;;;;;18.48;49.21;93835.41;5026581;28;20018;-87
2023/05/24 07:47:08;;;;;;;9.98;4.55;;;;;;;18.54;49.74;93828.53;5026939;28;20216;-88
2023/05/24 07:49:34;;;;;;;18.35;4.45;;;;;;;18.65;50.29;93832.19;5027289;28;20024;-86
2023/05/24 07:52:00;;;;;;;9.20;4.80;;;;;;;18.78;49.21;93830.03;5026739;28;20026;-87
2023/05/24 07:54:25;;;;;;;8.02;4.45;;;;;;;18.81;49.42;93823.94;5027043;28;20032;-87
2023/05/24 07:56:51;;;;;;;12.80;4.93;;;;;;;18.90;49.91;93819.03;5027755;28;20085;-88
2023/05/24 07:59:17;;;;;;;14.52;4.90;;;;;;;18.98;48.83;93826.09;5026559;28;20026;-86
2023/05/24 08:01:43;;;;;;;10.82;4.28;;;;;;;18.98;48.54;93820.69;5026854;28;20033;-90
2023/05/24 08:04:09;;;;;;;24.02;4.60;;;;;;;19.06;48.59;93821.56;5027775;28;20022;-92
2023/05/24 08:06:34;;;;;;;12.48;4.63;;;;;;;19.14;48.77;93825.91;5026213;28;20017;-87
2023/05/24 08:09:04;;;;;;;15.68;4.22;;;;;;;19.26;46.96;93829.53;5027096;28;20101;-90
2023/05/24 08:11:29;;;;;;;9.35;4.60;;;;;;;19.34;46.71;93829.22;5027344;28;20048;-90
2023/05/24 08:13:55;;;;;;;15.15;4.38;;;;;;;19.48;46.32;93833.22;5009177;28;20022;-89
2023/05/24 08:16:21;;;;;;;9.52;4.68;;;;;;;19.50;45.85;93828.22;5009169;28;20024;-91
2023/05/24 08:18:49;;;;;;;11.25;5.20;;;;;;;19.62;45.59;93822.53;5026506;28;20092;-91
2023/05/24 08:21:16;;;;;;;12.13;4.70;;;;;;;19.74;44.38;93822.34;5008647;28;20061;-86
2023/05/24 08:23:42;;;;;;;8.80;4.47;;;;;;;19.88;44.23;93815.50;5024610;28;20026;-78
2023/05/24 08:26:07;;;;;;;13.15;4.35;;;;;;;19.92;43.98;93819.00;5024565;28;20029;-78
2023/05/24 08:28:33;;;;;;;11.98;5.10;;;;;;;20.03;44.84;93825.28;5024411;28;20026;-78
2023/05/24 08:30:58;;;;;;;19.63;4.78;;;;;;;20.14;43.31;93818.03;5024680;28;20216;-77
2023/05/24 08:33:24;;;;;;;12.13;3.97;;;;;;;20.22;41.71;93824.28;5024154;28;20300;-77
2023/05/24 08:35:56;;;;;;;8.48;3.10;;;;;;;20.29;39.82;93815.44;5024217;28;20038;-80
2023/05/24 08:38:24;;;;;;;12.60;3.97;;;;;;;20.44;40.34;93827.94;5022209;28;20034;-75
2023/05/24 08:40:50;;;;;;;9.85;3.90;;;;;;;20.63;41.41;93824.97;5024035;28;20033;-80
2023/05/24 08:43:15;;;;;;;11.50;4.65;;;;;;;20.77;40.47;93812.69;5024547;28;20042;-78
2023/05/24 08:45:42;;;;;;;8.07;3.50;;;;;;;20.97;40.06;93815.88;5023345;28;20072;-79
2023/05/24 08:48:08;;;;;;;8.80;3.75;;;;;;;21.00;38.86;93817.81;5023990;28;20050;-79
2023/05/24 08:50:37;;;;;;;9.35;3.83;;;;;;;21.07;38.38;93814.38;5024278;28;20085;-78
2023/05/24 08:53:05;;;;;;;7.65;3.45;;;;;;;21.14;38.88;93812.47;5024226;28;20037;-76
2023/05/24 08:55:31;;;;;;;7.95;3.20;;;;;;;21.24;36.78;93822.56;5023279;28;20032;-77
2023/05/24 08:57:59;;;;;;;8.30;3.28;;;;;;;21.27;37.41;93815.63;5023877;28;20022;-78
2023/05/24 09:00:25;;;;;;;12.65;3.10;;;;;;;21.37;36.48;93816.78;5023791;28;20033;-77
2023/05/24 09:02:52;;;;;;;12.23;3.00;;;;;;;21.48;36.42;93809.50;5023812;28;20048;-77
2023/05/24 09:05:20;;;;;;;10.98;3.83;;;;;;;21.63;36.75;93821.16;5023758;28;20080;-78
2023/05/24 09:07:49;;;;;;;11.05;3.53;;;;;;;21.78;34.85;93809.19;5023959;28;20284;-76
2023/05/24 09:10:15;;;;;;;9.52;3.45;;;;;;;21.86;35.41;93807.28;5023793;28;20022;-78
2023/05/24 09:12:47;;;;;;;7.00;3.28;;;;;;;21.99;35.31;93818.53;5023629;28;20046;-78
2023/05/24 09:15:13;;;;;;;9.20;3.80;;;;;;;22.06;35.10;93806.88;5023504;28;20224;-78
2023/05/24 09:17:39;;;;;;;8.52;2.72;;;;;;;22.12;33.70;93805.34;5023522;28;20101;-78
2023/05/24 09:20:09;;;;;;;8.20;2.95;;;;;;;22.21;33.87;93805.72;5023287;28;20224;-78
2023/05/24 09:22:39;;;;;;;15.35;3.67;;;;;;;22.34;33.71;93808.84;5005729;28;20045;-76
2023/05/24 09:25:05;;;;;;;4.90;2.72;;;;;;;22.45;33.26;93809.63;5023419;28;20028;-76
2023/05/24 09:27:34;;;;;;;6.95;2.72;;;;;;;22.59;32.73;93817.75;5023274;28;20072;-79
2023/05/24 09:30:02;;;;;;;8.85;2.53;;;;;;;22.62;32.47;93808.81;5005706;28;20316;-77
2023/05/24 09:32:29;;;;;;;7.13;2.80;;;;;;;22.75;33.13;93811.88;5023169;28;20026;-76
2023/05/24 09:34:57;;;;;;;8.85;2.80;;;;;;;22.88;31.38;93808.75;5023183;28;20391;-79
2023/05/24 09:37:26;;;;;;;11.45;2.90;;;;;;;22.83;30.90;93804.50;5023151;28;20117;-78
2023/05/24 09:39:52;;;;;;;5.40;2.80;;;;;;;22.82;31.50;93805.69;5022917;28;20224;-79
2023/05/24 09:42:26;;;;;;;6.63;2.38;;;;;;;22.80;31.33;93802.59;5023298;28;20063;-78
2023/05/24 09:45:11;;;;;;;6.63;2.65;;;;;;;22.90;30.42;93800.97;5023202;28;20022;-78
2023/05/24 09:47:41;;;;;;;7.60;2.53;;;;;;;22.96;31.03;93802.13;5023012;28;20064;-77
2023/05/24 09:50:16;;;;;;;6.72;2.80;;;;;;;23.04;31.47;93798.28;5022972;28;20049;-77
2023/05/24 09:52:42;;;;;;;7.78;3.03;;;;;;;23.20;31.30;93798.59;5022854;28;20287;-77
2023/05/24 09:55:19;;;;;;;7.30;2.42;;;;;;;23.34;30.92;93799.69;5022977;28;20323;-76
2023/05/24 09:58:01;;;;;;;12.07;2.92;;;;;;;23.46;30.80;93801.19;5022906;28;20026;-79
2023/05/24 10:00:27;;;;;;;8.20;2.10;;;;;;;23.62;30.73;93798.75;5022266;28;20062;-80
2023/05/24 10:03:02;;;;;;;7.53;2.75;;;;;;;23.74;30.94;93798.31;5022724;28;20106;-77
2023/05/24 10:05:29;;;;;;;5.20;2.38;;;;;;;23.85;29.32;93798.25;5022736;28;20025;-79
2023/05/24 10:07:56;;;;;;;5.40;2.58;;;;;;;23.70;28.45;93788.63;5022706;28;20041;-79
2023/05/24 10:10:22;;;;;;;6.22;2.42;;;;;;;23.65;29.27;93792.53;5021298;28;20018;-79
2023/05/24 10:12:48;;;;;;;10.10;2.67;;;;;;;23.72;31.29;93789.00;5022785;28;20339;-76
2023/05/24 10:15:14;;;;;;;6.05;2.75;;;;;;;23.85;30.63;93800.22;5022519;28;20025;-76
2023/05/24 10:17:40;;;;;;;4.32;2.13;;;;;;;23.99;29.72;93791.94;5022825;28;20072;-77
2023/05/24 10:20:11;;;;;;;4.72;2.30;;;;;;;24.07;28.98;93790.72;5022207;28;20026;-78
2023/05/24 10:22:42;;;;;;;5.55;2.30;;;;;;;23.97;27.12;93788.84;5022623;28;20137;-76
2023/05/24 10:25:13;;;;;;;7.77;2.47;;;;;;;24.03;28.46;93787.25;5022390;28;20041;-77
2023/05/24 10:27:40;;;;;;;3.05;2.10;;;;;;;24.09;29.50;93790.31;5022411;28;20277;-77
2023/05/24 10:30:16;;;;;;;5.95;2.65;;;;;;;24.08;27.59;93784.09;5004713;28;20048;-77
2023/05/24 10:32:44;;;;;;;8.43;2.38;;;;;;;24.07;27.96;93784.50;5022286;28;20114;-79
2023/05/24 10:35:11;;;;;;;4.38;2.20;;;;;;;24.19;28.31;93779.34;5022329;28;20062;-78
2023/05/24 10:37:37;;;;;;;4.00;2.58;;;;;;;24.33;28.61;93778.44;5022402;28;20227;-78
2023/05/24 10:40:05;;;;;;;7.57;2.63;;;;;;;24.47;26.64;93777.53;5021236;28;20053;-79
2023/05/24 10:42:31;;;;;;;4.18;2.05;;;;;;;24.59;27.44;93779.78;5004846;28;20211;-80
2023/05/24 10:44:56;;;;;;;4.07;2.13;;;;;;;24.76;26.46;93774.56;5022276;28;20026;-80
2023/05/24 10:47:27;;;;;;;6.60;1.92;;;;;;;24.82;26.00;93768.25;5022382;28;20068;-81
2023/05/24 10:49:58;;;;;;;4.60;2.28;;;;;;;24.76;26.89;93766.38;5022241;28;20018;-84
2023/05/24 10:52:34;;;;;;;7.43;2.30;;;;;;;24.92;27.06;93760.38;5022263;28;20100;-82
2023/05/24 10:55:08;;;;;;;9.85;2.60;;;;;;;25.02;26.78;93756.75;5022181;28;20036;-79
2023/05/24 10:57:34;;;;;;;4.38;2.45;;;;;;;25.03;27.65;93753.63;5022256;28;20057;-78
2023/05/24 11:00:27;;;;;;;6.68;2.75;;;;;;;25.22;25.75;93756.94;5022630;28;20053;-81
2023/05/24 11:03:09;;;;;;;4.35;2.58;;;;;;;25.19;24.77;93752.25;5016120;28;20048;-80
2023/05/24 11:05:35;;;;;;;;;;;;;;;25.29;27.24;93747.88;5026505;28;20310;-80
2023/05/24 11:08:02;;;;;;;5.38;2.45;;;;;;;25.42;26.61;93757.84;5024893;28;19909;-80
2023/05/24 11:10:31;;;;;;;4.03;2.28;;;;;;;25.53;26.41;93746.00;5007885;28;20018;-80
2023/05/24 11:13:00;;;;;;;7.43;2.72;;;;;;;25.67;26.98;93751.25;5026105;28;20320;-76
2023/05/24 11:15:26;;;;;;;6.68;3.10;;;;;;;25.65;24.14;93742.69;5025782;28;20026;-80
2023/05/24 11:18:12;;;;;;;3.42;2.20;;;;;;;25.61;25.68;93739.25;5025719;28;20045;-80
2023/05/24 11:20:40;;;;;;;5.18;2.60;;;;;;;25.63;25.50;93739.63;5025717;28;20064;-77
2023/05/24 11:23:08;;;;;;;6.82;2.75;;;;;;;25.61;24.92;93736.53;5025549;28;20044;-77
2023/05/24 11:25:36;;;;;;;6.18;2.33;;;;;;;25.67;23.82;93740.34;5008045;28;20065;-77
2023/05/24 11:28:02;;;;;;;7.57;2.72;;;;;;;25.67;25.82;93731.38;5025525;28;20096;-77
2023/05/24 11:30:27;;;;;;;7.53;2.42;;;;;;;25.80;26.52;93738.56;5024043;28;20018;-77